Time;durP1;ratioP1;P1;durP2;ratioP2;P2;SDS_P1;SDS_P2;PMS_P1;PMS_P2;Temp;Humidity;BMP_temperature;BMP_pressure;BME280_temperature;BME280_humidity;BME280_pressure;Samples;Min_cycle;Max_cycle;Signal;HPM_P1;HPM_P2
2022/12/27 00:01:25;;;;;;;1.50;0.70;;;9.40;92.30;;;;;;5115001;28;20220;-63
2022/12/27 00:03:53;;;;;;;2.17;0.65;;;9.40;92.30;;;;;;5114811;28;20195;-63
2022/12/27 00:06:22;;;;;;;2.00;0.50;;;9.40;92.40;;;;;;5114826;28;20202;-63
2022/12/27 00:08:51;;;;;;;1.70;0.70;;;9.40;92.40;;;;;;5114677;28;20330;-63
2022/12/27 00:11:19;;;;;;;3.05;0.60;;;9.50;92.50;;;;;;5115173;28;20275;-64
2022/12/27 00:13:47;;;;;;;1.60;0.60;;;9.50;92.60;;;;;;5114849;28;20536;-64
2022/12/27 00:16:15;;;;;;;1.50;0.75;;;9.50;92.80;;;;;;5114828;28;20223;-64
2022/12/27 00:18:43;;;;;;;1.50;0.50;;;9.50;92.80;;;;;;5114492;28;20188;-64
2022/12/27 00:21:12;;;;;;;1.50;0.55;;;9.50;92.90;;;;;;5114745;28;20231;-65
2022/12/27 00:23:40;;;;;;;1.60;0.60;;;9.50;93.00;;;;;;5114775;28;20279;-64
2022/12/27 00:26:12;;;;;;;1.50;0.57;;;9.40;93.10;;;;;;5114722;28;20196;-64
2022/12/27 00:28:39;;;;;;;1.50;0.60;;;9.40;93.00;;;;;;5114753;28;20596;-64
2022/12/27 00:31:07;;;;;;;1.50;0.60;;;9.40;93.00;;;;;;5114145;28;20279;-65
2022/12/27 00:33:35;;;;;;;1.70;0.60;;;9.40;92.90;;;;;;5114258;28;20195;-63
2022/12/27 00:36:05;;;;;;;1.60;0.70;;;9.40;92.80;;;;;;5113770;28;20240;-63
2022/12/27 00:38:33;;;;;;;1.60;0.60;;;9.40;92.90;;;;;;5114570;28;20598;-63
2022/12/27 00:41:01;;;;;;;1.48;0.50;;;9.40;93.10;;;;;;5114149;28;20227;-64
2022/12/27 00:43:30;;;;;;;1.50;0.50;;;9.40;93.20;;;;;;5114397;27;20249;-64
2022/12/27 00:45:58;;;;;;;1.60;0.60;;;9.30;93.10;;;;;;5114129;28;20189;-63
2022/12/27 00:48:25;;;;;;;1.70;0.63;;;9.30;93.00;;;;;;5114303;28;20269;-63
2022/12/27 00:50:59;;;;;;;1.80;0.63;;;9.30;93.10;;;;;;5113971;28;20219;-63
2022/12/27 00:53:26;;;;;;;1.50;0.57;;;9.30;93.30;;;;;;5114198;28;20231;-63
2022/12/27 00:55:53;;;;;;;1.50;0.60;;;9.30;93.20;;;;;;5113836;28;20314;-63
2022/12/27 00:58:20;;;;;;;1.45;0.50;;;9.30;93.40;;;;;;5113773;28;20278;-63
2022/12/27 01:00:49;;;;;;;2.13;0.80;;;9.30;93.50;;;;;;5113736;28;20226;-64
2022/12/27 01:03:17;;;;;;;1.50;0.60;;;9.30;93.60;;;;;;5113701;28;20228;-64
2022/12/27 01:05:44;;;;;;;1.60;0.60;;;9.30;93.50;;;;;;5113845;28;20275;-64
2022/12/27 01:08:11;;;;;;;1.45;0.50;;;9.30;93.40;;;;;;5113529;27;20690;-64
2022/12/27 01:10:39;;;;;;;1.70;0.70;;;9.30;93.50;;;;;;5113614;28;20284;-65
2022/12/27 01:13:07;;;;;;;1.75;0.70;;;9.30;93.60;;;;;;5113632;28;20294;-64
2022/12/27 01:15:34;;;;;;;2.90;0.63;;;9.30;93.60;;;;;;5113656;28;20275;-65
2022/12/27 01:18:03;;;;;;;1.50;0.60;;;9.30;93.60;;;;;;5113354;28;20282;-63
2022/12/27 01:20:30;;;;;;;1.75;0.80;;;9.30;93.60;;;;;;5113703;28;20200;-65
2022/12/27 01:22:57;;;;;;;1.98;0.93;;;9.30;93.60;;;;;;5113540;28;20531;-64
2022/12/27 01:25:24;;;;;;;2.08;0.75;;;9.30;93.50;;;;;;5113378;28;20248;-64
2022/12/27 01:27:51;;;;;;;1.58;0.80;;;9.30;93.60;;;;;;5113494;28;20359;-64
2022/12/27 01:30:18;;;;;;;2.13;0.60;;;9.30;93.60;;;;;;5113384;28;20287;-64
2022/12/27 01:32:45;;;;;;;2.33;0.88;;;9.30;93.60;;;;;;5113260;28;20678;-64
2022/12/27 01:35:13;;;;;;;1.80;1.00;;;9.30;93.70;;;;;;5112752;28;20330;-64
2022/12/27 01:37:40;;;;;;;2.70;0.88;;;9.20;93.70;;;;;;5113408;28;20207;-64
2022/12/27 01:40:08;;;;;;;2.20;0.80;;;9.20;93.60;;;;;;5113205;28;20213;-64
2022/12/27 01:42:54;;;;;;;3.85;0.98;;;9.20;93.50;;;;;;5113477;28;20192;-66
2022/12/27 01:45:22;;;;;;;1.90;0.77;;;9.20;93.40;;;;;;5113295;28;20336;-66
2022/12/27 01:47:54;;;;;;;1.60;0.80;;;9.20;93.40;;;;;;5112673;28;20195;-64
2022/12/27 01:50:30;;;;;;;1.80;0.85;;;9.20;93.40;;;;;;5112907;28;20539;-64
2022/12/27 01:53:05;;;;;;;1.58;0.70;;;9.20;93.60;;;;;;5113152;28;20539;-64
2022/12/27 01:55:37;;;;;;;1.77;0.82;;;9.20;93.60;;;;;;5113157;28;20261;-64
2022/12/27 01:58:09;;;;;;;1.80;0.70;;;9.20;93.60;;;;;;5112838;28;20712;-63
2022/12/27 02:00:36;;;;;;;2.30;0.70;;;9.20;93.80;;;;;;5113125;28;20197;-62
2022/12/27 02:03:05;;;;;;;2.00;0.77;;;9.10;93.90;;;;;;5113150;28;20285;-63
2022/12/27 02:05:40;;;;;;;2.70;0.70;;;9.10;93.70;;;;;;5112964;28;20238;-62
2022/12/27 02:08:23;;;;;;;2.03;0.80;;;9.10;93.70;;;;;;5113176;28;20588;-64
2022/12/27 02:10:51;;;;;;;3.65;0.85;;;9.10;93.80;;;;;;5112998;28;20195;-63
2022/12/27 02:13:19;;;;;;;2.15;0.80;;;9.10;93.80;;;;;;5115491;28;20233;-63
2022/12/27 02:15:46;;;;;;;1.85;0.75;;;9.10;93.80;;;;;;5116859;28;20256;-64
2022/12/27 02:18:13;;;;;;;3.53;0.90;;;9.10;94.00;;;;;;5116996;28;20194;-63
2022/12/27 02:21:24;;;;;;;2.40;0.90;;;9.10;94.00;;;;;;5117220;28;20278;-64
2022/12/27 02:24:19;;;;;;;1.98;0.98;;;9.10;93.90;;;;;;5116851;28;20259;-62
2022/12/27 02:26:53;;;;;;;2.40;1.00;;;9.00;92.80;;;;;;5117080;28;20190;-64
2022/12/27 02:29:37;;;;;;;2.15;1.00;;;8.90;92.50;;;;;;5117077;28;20520;-64
2022/12/27 02:32:07;;;;;;;2.53;1.00;;;8.90;92.30;;;;;;5117094;28;20195;-64
2022/12/27 02:34:42;;;;;;;2.78;0.80;;;8.80;92.10;;;;;;5116398;28;20220;-65
2022/12/27 02:37:12;;;;;;;3.80;1.00;;;8.70;91.90;;;;;;5116795;27;20320;-64
2022/12/27 02:39:43;;;;;;;1.80;0.80;;;8.70;91.60;;;;;;5116728;28;20562;-64
2022/12/27 02:53:40;;;;;;;2.92;0.90;;;8.50;90.70;;;;;;5116488;28;20571;-63
2022/12/27 02:59:18;;;;;;;2.53;1.10;;;8.40;90.60;;;;;;5116585;28;20196;-65
2022/12/27 03:05:06;;;;;;;2.17;1.00;;;8.40;90.20;;;;;;5116718;28;20199;-63
2022/12/27 03:07:39;;;;;;;2.55;1.00;;;8.30;90.00;;;;;;5116607;28;20235;-63
2022/12/27 03:16:18;;;;;;;2.60;1.00;;;8.30;89.30;;;;;;5115711;28;20767;-63
2022/12/27 03:19:00;;;;;;;2.83;1.15;;;8.30;89.60;;;;;;5116224;28;20199;-63
2022/12/27 03:27:07;;;;;;;2.72;1.30;;;8.20;89.90;;;;;;5115831;28;20186;-63
2022/12/27 03:35:13;;;;;;;4.60;3.25;;;8.20;89.60;;;;;;5115455;28;20343;-63
2022/12/27 03:38:04;;;;;;;3.05;1.10;;;8.20;89.40;;;;;;5115666;28;20275;-63
2022/12/27 03:43:28;;;;;;;2.55;1.20;;;8.00;89.70;;;;;;5115246;28;20278;-63
2022/12/27 03:49:03;;;;;;;2.42;1.25;;;8.00;90.40;;;;;;5115601;28;20635;-63
2022/12/27 03:51:36;;;;;;;2.50;1.27;;;8.00;90.50;;;;;;5115273;28;20192;-64
2022/12/27 03:54:08;;;;;;;3.28;1.25;;;8.00;90.30;;;;;;5115546;28;20591;-63
2022/12/27 03:56:36;;;;;;;2.20;1.00;;;8.00;90.00;;;;;;5115582;28;20249;-65
2022/12/27 03:59:04;;;;;;;3.55;1.25;;;8.00;89.10;;;;;;5115341;28;20617;-64
2022/12/27 04:01:31;;;;;;;4.15;1.20;;;7.90;88.40;;;;;;5114953;28;20250;-63
2022/12/27 04:03:58;;;;;;;3.15;1.20;;;7.90;87.90;;;;;;5114970;28;20565;-63
2022/12/27 04:06:25;;;;;;;2.25;1.00;;;7.80;88.30;;;;;;5115209;28;20288;-63
2022/12/27 04:36:17;;;;;;;2.88;1.40;;;7.30;92.00;;;;;;5113954;28;20260;-63
2022/12/27 04:38:44;;;;;;;2.33;1.25;;;7.30;92.40;;;;;;5114394;28;20662;-64
2022/12/27 04:54:59;;;;;;;3.65;1.38;;;7.50;92.20;;;;;;5114138;28;20261;-63
2022/12/27 04:57:28;;;;;;;2.15;1.02;;;7.40;92.10;;;;;;5113754;28;20785;-63
2022/12/27 05:02:41;;;;;;;2.25;1.05;;;7.30;91.70;;;;;;5114416;28;20187;-64
2022/12/27 05:05:09;;;;;;;1.55;0.77;;;7.30;91.90;;;;;;5114265;28;20192;-64
2022/12/27 05:15:55;;;;;;;3.45;1.15;;;7.30;91.90;;;;;;5113956;28;20211;-63
2022/12/27 05:18:23;;;;;;;2.28;1.20;;;7.30;91.90;;;;;;5113738;27;20224;-63
2022/12/27 05:20:50;;;;;;;7.68;1.50;;;7.30;92.10;;;;;;5113702;28;20235;-63
2022/12/27 05:26:01;;;;;;;5.15;1.73;;;7.30;91.70;;;;;;5113824;28;20234;-63
2022/12/27 05:28:30;;;;;;;4.20;1.42;;;7.30;91.70;;;;;;5114021;28;20604;-63
2022/12/27 05:31:01;;;;;;;2.50;1.27;;;7.40;91.80;;;;;;5113873;28;20235;-64
2022/12/27 05:33:31;;;;;;;3.13;1.92;;;7.40;91.50;;;;;;5114010;28;20218;-63
2022/12/27 05:35:59;;;;;;;2.60;1.50;;;7.40;91.50;;;;;;5113197;28;20636;-64
2022/12/27 05:38:27;;;;;;;5.15;2.28;;;7.40;91.10;;;;;;5113647;28;20275;-63
2022/12/27 05:40:58;;;;;;;3.00;1.33;;;7.40;91.30;;;;;;5113535;28;20193;-63
2022/12/27 05:43:25;;;;;;;3.75;1.45;;;7.30;91.30;;;;;;5113797;28;20284;-63
2022/12/27 05:45:54;;;;;;;4.43;1.70;;;7.30;90.80;;;;;;5113430;28;20686;-63
2022/12/27 05:48:21;;;;;;;3.05;1.52;;;7.30;91.10;;;;;;5112756;28;20257;-63
2022/12/27 05:50:49;;;;;;;4.85;1.30;;;7.30;91.10;;;;;;5113276;28;20654;-64
2022/12/27 05:53:16;;;;;;;2.47;1.75;;;7.20;91.00;;;;;;5113389;28;20283;-63
2022/12/27 05:55:42;;;;;;;2.95;1.20;;;7.10;91.40;;;;;;5113557;28;20237;-63
2022/12/27 05:58:10;;;;;;;3.50;1.38;;;6.90;91.70;;;;;;5113013;28;20245;-63
2022/12/27 06:00:36;;;;;;;3.15;1.50;;;6.80;92.10;;;;;;5113444;28;20224;-64
2022/12/27 06:03:05;;;;;;;3.38;1.92;;;6.80;92.20;;;;;;5113378;28;20275;-63
2022/12/27 06:05:32;;;;;;;8.20;2.35;;;6.70;92.40;;;;;;5113433;28;20647;-63
2022/12/27 06:07:59;;;;;;;23.58;2.50;;;6.70;92.70;;;;;;5113514;28;20283;-63
2022/12/27 06:10:26;;;;;;;4.05;1.80;;;6.70;92.80;;;;;;5113414;28;20192;-63
2022/12/27 06:12:53;;;;;;;6.82;1.65;;;6.70;92.90;;;;;;5113308;28;20287;-63
2022/12/27 06:15:20;;;;;;;4.38;1.95;;;6.60;92.80;;;;;;5113043;28;20249;-63
2022/12/27 06:17:47;;;;;;;2.92;1.95;;;6.60;92.80;;;;;;5113134;28;20277;-63
2022/12/27 06:20:15;;;;;;;4.32;1.70;;;6.60;93.00;;;;;;5112929;28;20222;-63
2022/12/27 06:22:43;;;;;;;4.55;2.10;;;6.70;92.80;;;;;;5113346;28;20223;-63
2022/12/27 06:25:11;;;;;;;3.90;1.80;;;6.70;92.70;;;;;;5113079;28;20279;-65
2022/12/27 06:27:37;;;;;;;3.58;2.30;;;6.60;92.60;;;;;;5113361;28;20245;-63
2022/12/27 06:30:06;;;;;;;2.88;2.33;;;6.70;92.60;;;;;;5112999;28;20283;-63
2022/12/27 06:32:33;;;;;;;4.70;2.25;;;6.70;92.40;;;;;;5112963;28;20226;-62
2022/12/27 06:35:00;;;;;;;5.10;2.70;;;6.70;92.30;;;;;;5112814;28;20216;-63
2022/12/27 06:37:30;;;;;;;5.20;3.10;;;6.80;92.00;;;;;;5112478;28;20251;-63
2022/12/27 06:39:57;;;;;;;5.60;3.10;;;6.80;91.90;;;;;;5113127;28;20236;-63
2022/12/27 06:42:24;;;;;;;5.90;2.92;;;6.80;91.90;;;;;;5112624;28;20617;-63
2022/12/27 06:44:50;;;;;;;3.53;2.25;;;6.80;91.80;;;;;;5113122;28;20188;-63
2022/12/27 06:47:17;;;;;;;4.22;2.90;;;6.80;91.80;;;;;;5112780;28;20287;-63
2022/12/27 06:49:44;;;;;;;4.13;2.58;;;6.90;92.00;;;;;;5112843;28;20278;-64
2022/12/27 06:52:11;;;;;;;4.38;2.83;;;6.90;92.00;;;;;;5112865;28;20189;-63
2022/12/27 06:54:40;;;;;;;6.25;2.95;;;6.90;91.50;;;;;;5112995;28;20199;-64
2022/12/27 06:57:07;;;;;;;4.80;2.40;;;6.90;91.50;;;;;;5112901;28;20310;-64
2022/12/27 06:59:34;;;;;;;5.65;2.97;;;6.90;91.70;;;;;;5115744;28;20366;-63
2022/12/27 07:02:00;;;;;;;6.60;2.50;;;6.80;91.40;;;;;;5116694;28;20223;-64
2022/12/27 07:04:27;;;;;;;4.82;2.88;;;6.80;91.70;;;;;;5116366;28;20376;-63
2022/12/27 07:06:55;;;;;;;6.45;3.67;;;6.80;91.70;;;;;;5116602;28;20610;-63
2022/12/27 07:09:21;;;;;;;7.53;2.78;;;6.70;91.70;;;;;;5116587;28;20193;-63
2022/12/27 07:11:50;;;;;;;7.60;4.00;;;6.80;92.00;;;;;;5116354;28;20227;-63
2022/12/27 07:14:17;;;;;;;6.40;3.45;;;6.80;92.00;;;;;;5116012;28;20189;-63
2022/12/27 07:16:44;;;;;;;6.43;3.38;;;6.80;92.10;;;;;;5116194;28;20303;-64
2022/12/27 07:19:11;;;;;;;10.32;3.30;;;6.80;92.30;;;;;;5116515;28;20279;-63
2022/12/27 07:21:37;;;;;;;6.20;3.30;;;6.80;92.10;;;;;;5116183;28;20291;-64
2022/12/27 07:24:05;;;;;;;8.82;5.50;;;6.80;92.00;;;;;;5116314;28;20228;-64
2022/12/27 07:26:32;;;;;;;6.65;3.47;;;6.80;92.10;;;;;;5116267;28;20237;-63
2022/12/27 07:29:01;;;;;;;5.10;3.28;;;6.70;92.30;;;;;;5116216;28;20279;-63
2022/12/27 07:31:31;;;;;;;6.57;2.83;;;6.80;92.40;;;;;;5115602;28;20648;-63
2022/12/27 07:34:00;;;;;;;3.42;2.00;;;6.80;92.10;;;;;;5116005;28;20554;-63
2022/12/27 07:36:29;;;;;;;3.85;2.05;;;6.60;91.70;;;;;;5115678;28;20265;-64
2022/12/27 07:38:57;;;;;;;3.80;2.30;;;6.60;92.00;;;;;;5116049;28;20196;-63
2022/12/27 07:41:24;;;;;;;4.07;2.15;;;6.70;91.80;;;;;;5116107;28;20601;-63
2022/12/27 07:43:51;;;;;;;5.57;3.88;;;6.70;92.00;;;;;;5115654;28;20189;-63
2022/12/27 07:46:21;;;;;;;7.28;3.35;;;6.70;92.30;;;;;;5115827;28;20283;-63
2022/12/27 07:48:49;;;;;;;6.07;2.80;;;6.70;92.40;;;;;;5115634;28;20228;-63
2022/12/27 07:51:17;;;;;;;3.35;1.90;;;6.80;92.40;;;;;;5115530;28;20193;-63
2022/12/27 07:53:47;;;;;;;7.28;4.72;;;6.90;92.60;;;;;;5115561;28;20639;-64
2022/12/27 07:56:17;;;;;;;7.95;5.05;;;6.90;92.60;;;;;;5115943;28;20605;-63
2022/12/27 07:58:46;;;;;;;5.90;4.85;;;6.90;92.50;;;;;;5115616;28;20227;-63
2022/12/27 08:01:15;;;;;;;5.28;4.43;;;6.90;92.20;;;;;;5115586;28;20220;-63
2022/12/27 08:03:44;;;;;;;4.35;3.15;;;7.00;92.40;;;;;;5115434;28;20192;-63
2022/12/27 08:06:21;;;;;;;4.60;2.88;;;7.10;92.40;;;;;;5115583;28;20304;-65
2022/12/27 08:08:49;;;;;;;5.07;2.20;;;7.10;92.40;;;;;;5115323;28;20246;-63
2022/12/27 08:11:16;;;;;;;3.50;2.50;;;7.10;92.10;;;;;;5114522;28;20192;-64
2022/12/27 08:13:43;;;;;;;4.68;2.60;;;7.00;92.20;;;;;;5115091;28;20279;-64
2022/12/27 08:16:17;;;;;;;4.25;2.70;;;7.00;92.20;;;;;;5115023;28;20280;-64
2022/12/27 08:18:45;;;;;;;4.07;2.92;;;7.00;92.50;;;;;;5115326;28;20680;-64
2022/12/27 08:21:12;;;;;;;6.15;3.80;;;7.10;92.50;;;;;;5115018;28;20220;-64
2022/12/27 08:23:40;;;;;;;7.15;4.40;;;;;;;;;;5114900;28;20228;-64
2022/12/27 08:26:07;;;;;;;4.82;3.40;;;7.10;92.30;;;;;;5115026;28;20192;-63
2022/12/27 08:28:34;;;;;;;5.65;3.28;;;7.10;92.30;;;;;;5114869;28;20614;-63
2022/12/27 08:31:01;;;;;;;4.30;2.88;;;7.10;92.50;;;;;;5114926;28;20286;-63
2022/12/27 08:33:28;;;;;;;4.78;3.55;;;7.10;92.60;;;;;;5114934;28;20228;-64
2022/12/27 08:35:57;;;;;;;5.55;3.95;;;7.20;92.90;;;;;;5114514;28;20303;-64
2022/12/27 08:38:24;;;;;;;5.90;3.30;;;7.30;92.90;;;;;;5114754;28;20273;-63
2022/12/27 08:40:51;;;;;;;7.75;3.58;;;7.40;92.90;;;;;;5114960;28;20192;-64
2022/12/27 08:43:18;;;;;;;3.50;2.13;;;7.50;92.70;;;;;;5114312;28;20450;-64
2022/12/27 08:45:45;;;;;;;4.70;2.85;;;7.60;92.50;;;;;;5114801;28;20205;-64
2022/12/27 08:48:12;;;;;;;4.25;3.10;;;7.70;92.50;;;;;;5114532;28;20243;-63
2022/12/27 08:50:39;;;;;;;7.50;5.00;;;7.80;92.30;;;;;;5114746;28;20280;-64
2022/12/27 08:53:07;;;;;;;12.15;5.53;;;7.90;92.40;;;;;;5114655;28;20231;-64
2022/12/27 08:55:34;;;;;;;5.78;4.80;;;8.10;92.20;;;;;;5114656;27;20233;-64
2022/12/27 08:58:04;;;;;;;6.25;4.35;;;8.10;91.90;;;;;;5114122;28;20313;-64
2022/12/27 09:00:31;;;;;;;9.00;4.95;;;8.20;91.60;;;;;;5114237;28;20670;-66
2022/12/27 09:02:58;;;;;;;7.30;3.85;;;8.10;91.10;;;;;;5114217;28;20597;-63
2022/12/27 09:05:27;;;;;;;10.48;3.25;;;8.10;91.00;;;;;;5114388;28;20194;-64
2022/12/27 09:07:54;;;;;;;3.78;2.67;;;8.20;90.90;;;;;;5114227;28;20233;-63
2022/12/27 09:10:24;;;;;;;4.97;3.45;;;8.20;90.70;;;;;;5114242;28;20289;-64
2022/12/27 09:12:51;;;;;;;5.43;2.72;;;8.30;91.00;;;;;;5114197;28;20228;-64
2022/12/27 09:15:18;;;;;;;6.60;3.97;;;8.40;91.60;;;;;;5114194;28;20194;-64
2022/12/27 09:17:45;;;;;;;5.22;3.55;;;8.40;91.30;;;;;;5114068;28;20640;-64
2022/12/27 09:20:12;;;;;;;3.15;2.35;;;8.50;91.20;;;;;;5113862;28;20280;-64
2022/12/27 09:22:39;;;;;;;4.20;2.67;;;8.60;91.20;;;;;;5114161;28;20269;-65
2022/12/27 09:25:08;;;;;;;3.08;2.00;;;8.80;90.90;;;;;;5113897;28;20292;-64
2022/12/27 09:27:37;;;;;;;3.85;2.20;;;8.90;90.30;;;;;;5114178;28;20184;-64
2022/12/27 09:30:06;;;;;;;5.72;1.95;;;9.00;90.60;;;;;;5114000;28;20255;-64
2022/12/27 09:32:33;;;;;;;8.88;2.78;;;9.20;90.20;;;;;;5113852;28;20555;-64
2022/12/27 09:35:00;;;;;;;6.78;2.42;;;9.40;90.00;;;;;;5113552;28;20320;-64
2022/12/27 09:37:27;;;;;;;5.05;3.00;;;9.50;88.60;;;;;;5113848;28;20214;-64
2022/12/27 09:39:53;;;;;;;4.90;2.35;;;9.50;86.50;;;;;;5113835;28;20688;-64
2022/12/27 09:42:37;;;;;;;3.55;1.80;;;9.60;85.40;;;;;;5113516;28;20683;-64
2022/12/27 09:45:12;;;;;;;3.50;2.00;;;9.60;84.90;;;;;;5113081;28;20653;-64
2022/12/27 09:47:46;;;;;;;3.78;2.30;;;9.60;84.30;;;;;;5113660;28;20274;-64
2022/12/27 09:50:18;;;;;;;4.40;3.20;;;9.60;84.50;;;;;;5113382;28;20626;-64
2022/12/27 09:52:58;;;;;;;4.00;2.80;;;9.70;83.50;;;;;;5113212;28;20192;-63
2022/12/27 09:55:42;;;;;;;5.80;2.70;;;9.70;83.90;;;;;;5113269;28;20187;-65
2022/12/27 09:58:31;;;;;;;4.40;2.75;;;9.80;84.10;;;;;;5113396;28;20219;-65
2022/12/27 10:01:00;;;;;;;9.30;3.47;;;10.20;83.80;;;;;;5112737;28;20243;-64
2022/12/27 10:03:29;;;;;;;4.35;3.55;;;10.60;82.80;;;;;;5113384;28;20274;-64
2022/12/27 10:06:05;;;;;;;5.32;3.80;;;10.90;80.00;;;;;;5113350;28;20188;-64
2022/12/27 10:08:43;;;;;;;6.68;3.63;;;10.90;78.10;;;;;;5113294;28;20596;-64
2022/12/27 10:14:05;;;;;;;5.15;2.53;;;10.80;77.90;;;;;;5113188;28;20257;-64
2022/12/27 10:16:40;;;;;;;4.88;2.42;;;10.70;77.10;;;;;;5113017;28;20198;-64
2022/12/27 10:19:25;;;;;;;5.90;2.97;;;10.70;78.10;;;;;;5113085;28;20291;-64
2022/12/27 10:22:03;;;;;;;4.05;2.45;;;10.60;78.00;;;;;;5113215;28;20184;-64
2022/12/27 10:24:37;;;;;;;4.75;2.70;;;;;;;;;;5113143;28;20292;-64
2022/12/27 10:27:09;;;;;;;5.53;2.83;;;;;;;;;;5113320;28;20202;-64
2022/12/27 10:29:36;;;;;;;3.75;2.17;;;;;;;;;;5113078;28;20223;-64
2022/12/27 10:32:05;;;;;;;3.78;2.50;;;;;;;;;;5112873;28;20234;-63
2022/12/27 10:34:32;;;;;;;5.50;2.63;;;;;;;;;;5115996;28;20194;-63
2022/12/27 10:37:00;;;;;;;5.15;2.92;;;;;;;;;;5117267;28;20236;-63
2022/12/27 10:39:28;;;;;;;4.97;3.15;;;;;;;;;;5117062;28;20220;-66
2022/12/27 10:42:04;;;;;;;4.90;3.25;;;10.60;78.90;;;;;;5116934;28;20192;-64
2022/12/27 10:44:31;;;;;;;2.75;1.73;;;10.20;80.40;;;;;;5117084;28;20293;-64
2022/12/27 10:46:59;;;;;;;3.60;1.80;;;10.40;80.70;;;;;;5116510;28;20221;-63
2022/12/27 10:49:29;;;;;;;4.22;2.70;;;10.60;80.00;;;;;;5117231;28;20231;-64
2022/12/27 10:52:05;;;;;;;5.63;2.40;;;11.00;80.10;;;;;;5117005;27;20195;-65
2022/12/27 10:54:32;;;;;;;5.25;2.40;;;11.50;78.50;;;;;;5116899;28;20653;-64
2022/12/27 10:57:18;;;;;;;7.07;1.85;;;11.50;75.40;;;;;;5116794;28;20237;-63
2022/12/27 10:59:45;;;;;;;3.25;1.95;;;11.30;72.80;;;;;;5116954;28;20188;-64
2022/12/27 11:02:19;;;;;;;3.38;2.08;;;11.20;74.70;;;;;;5116434;28;20246;-63
2022/12/27 11:04:59;;;;;;;4.25;1.92;;;11.30;75.40;;;;;;5116819;28;20271;-64
2022/12/27 11:07:30;;;;;;;3.13;1.70;;;11.40;73.80;;;;;;5116561;28;20654;-63
2022/12/27 11:10:08;;;;;;;3.15;1.98;;;11.60;73.10;;;;;;5116426;28;20549;-63
2022/12/27 11:12:35;;;;;;;3.30;2.13;;;11.80;72.60;;;;;;5116332;28;20227;-64
2022/12/27 11:15:04;;;;;;;4.30;2.10;;;12.00;71.30;;;;;;5116373;28;20681;-63
2022/12/27 11:17:37;;;;;;;4.50;2.07;;;12.00;70.10;;;;;;5116175;28;20924;-64
2022/12/27 11:20:19;;;;;;;3.00;1.60;;;11.80;70.30;;;;;;5116520;28;20521;-63
2022/12/27 11:22:48;;;;;;;4.50;2.40;;;11.70;70.50;;;;;;5116243;28;20434;-64
2022/12/27 11:25:15;;;;;;;2.85;1.65;;;11.70;70.70;;;;;;5116053;28;20477;-63
2022/12/27 11:27:46;;;;;;;4.05;1.80;;;11.70;71.30;;;;;;5115818;28;20192;-64
2022/12/27 11:30:22;;;;;;;3.50;1.73;;;11.70;71.60;;;;;;5116209;28;20635;-63
2022/12/27 11:32:50;;;;;;;2.50;1.70;;;11.70;70.60;;;;;;5116120;28;20540;-63
2022/12/27 11:35:20;;;;;;;3.38;1.90;;;11.70;70.00;;;;;;5116018;28;20565;-63
2022/12/27 11:37:48;;;;;;;2.43;1.60;;;11.90;69.90;;;;;;5116076;28;20216;-64
2022/12/27 11:40:24;;;;;;;3.00;1.85;;;12.10;68.40;;;;;;5115998;28;20443;-63
2022/12/27 11:42:57;;;;;;;2.87;1.73;;;12.20;68.70;;;;;;5115877;28;20192;-63
2022/12/27 11:45:28;;;;;;;3.57;1.83;;;12.30;68.00;;;;;;5114796;28;20777;-64
2022/12/27 11:48:00;;;;;;;2.53;1.40;;;12.40;67.10;;;;;;5115692;28;20438;-63
2022/12/27 11:50:56;;;;;;;4.20;2.60;;;12.70;68.70;;;;;;5115738;28;20585;-63
2022/12/27 11:53:52;;;;;;;4.50;1.63;;;13.20;67.50;;;;;;5115821;27;20473;-63
2022/12/27 11:56:24;;;;;;;4.20;2.03;;;13.90;62.30;;;;;;5115715;28;20513;-63
2022/12/27 11:59:25;;;;;;;2.90;1.63;;;13.90;60.10;;;;;;5115672;28;20534;-63
2022/12/27 12:02:07;;;;;;;3.13;1.50;;;14.10;59.80;;;;;;5115324;28;20476;-64
2022/12/27 12:05:08;;;;;;;2.20;1.10;;;14.20;59.20;;;;;;5115688;28;20438;-63
2022/12/27 12:07:56;;;;;;;3.00;1.50;;;14.10;59.00;;;;;;5115637;28;20524;-63
2022/12/27 12:10:32;;;;;;;2.70;1.13;;;14.10;58.70;;;;;;5115566;28;20435;-63
2022/12/27 12:13:27;;;;;;;2.53;1.00;;;13.90;59.40;;;;;;5115417;28;20479;-63
2022/12/27 12:16:20;;;;;;;2.80;1.27;;;13.60;58.60;;;;;;5115245;28;20426;-63
2022/12/27 12:19:11;;;;;;;4.50;1.40;;;13.50;59.00;;;;;;5070435;28;21031;-64
2022/12/27 12:21:43;;;;;;;2.10;1.10;;;13.50;59.80;;;;;;5115257;28;20495;-64
2022/12/27 12:24:42;;;;;;;2.53;1.60;;;13.60;60.60;;;;;;5115130;28;20532;-64
2022/12/27 12:27:36;;;;;;;3.80;1.97;;;13.60;59.60;;;;;;5115207;28;20434;-64
2022/12/27 12:30:39;;;;;;;5.10;1.97;;;13.10;59.10;;;;;;5115023;28;20438;-64
2022/12/27 12:33:38;;;;;;;3.00;1.80;;;13.00;59.80;;;;;;5115012;28;20482;-63
2022/12/27 12:36:23;;;;;;;4.73;2.33;;;12.80;61.00;;;;;;5114580;28;20462;-63
2022/12/27 12:38:58;;;;;;;4.20;2.00;;;12.50;60.90;;;;;;5114970;27;20517;-64
2022/12/27 12:41:56;;;;;;;3.10;2.10;;;12.20;62.40;;;;;;5114643;28;20553;-63
2022/12/27 12:44:50;;;;;;;3.40;1.47;;;11.80;62.70;;;;;;5114886;27;20472;-63
2022/12/27 12:47:41;;;;;;;2.93;1.43;;;11.30;64.20;;;;;;5107882;27;20449;-64
2022/12/27 12:50:23;;;;;;;6.50;2.50;;;11.10;66.30;;;;;;5114391;28;20944;-64
2022/12/27 12:53:16;;;;;;;2.83;1.40;;;10.80;67.00;;;;;;5114713;28;20658;-63
2022/12/27 12:55:54;;;;;;;3.08;1.52;;;10.70;68.30;;;;;;5114500;28;20231;-63
2022/12/27 12:58:41;;;;;;;4.03;1.63;;;10.40;68.30;;;;;;5114390;28;20323;-63
2022/12/27 13:01:29;;;;;;;3.60;1.40;;;10.40;69.50;;;;;;5114486;28;20192;-63
2022/12/27 13:04:12;;;;;;;2.10;1.20;;;10.20;70.50;;;;;;5114583;28;20234;-62
2022/12/27 13:06:56;;;;;;;3.72;2.28;;;10.10;71.30;;;;;;5114345;28;20285;-63
2022/12/27 13:09:35;;;;;;;2.65;1.23;;;10.00;72.20;;;;;;5114127;28;20183;-63
2022/12/27 13:12:10;;;;;;;4.40;2.00;;;10.00;72.20;;;;;;5114473;28;20204;-63
2022/12/27 13:14:59;;;;;;;2.80;1.63;;;10.00;72.70;;;;;;5114302;28;20248;-63
2022/12/27 13:17:33;;;;;;;5.00;3.10;;;9.90;74.30;;;;;;5114266;28;20191;-62
2022/12/27 13:20:19;;;;;;;4.50;2.45;;;9.90;74.30;;;;;;5114006;28;20657;-63
2022/12/27 13:22:57;;;;;;;7.30;3.20;;;9.90;74.10;;;;;;5113933;28;20196;-63
2022/12/27 13:25:31;;;;;;;7.97;3.88;;;10.00;73.70;;;;;;5114055;28;20195;-62
2022/12/27 13:28:18;;;;;;;8.10;5.00;;;10.00;73.80;;;;;;5114158;28;20198;-63
2022/12/27 13:30:56;;;;;;;5.18;2.53;;;10.00;73.90;;;;;;5113923;28;20257;-63
2022/12/27 13:33:34;;;;;;;5.18;2.38;;;10.00;73.60;;;;;;5113998;28;20321;-62
2022/12/27 13:36:18;;;;;;;4.20;2.55;;;10.00;73.60;;;;;;5113494;28;20732;-64
2022/12/27 13:39:04;;;;;;;3.65;2.05;;;10.00;74.30;;;;;;5113483;28;20246;-64
2022/12/27 13:41:45;;;;;;;5.10;2.08;;;10.00;74.60;;;;;;5113352;28;20661;-63
2022/12/27 13:44:33;;;;;;;3.92;2.10;;;10.00;74.90;;;;;;5113540;28;20275;-63
2022/12/27 13:47:28;;;;;;;4.22;2.25;;;10.00;75.30;;;;;;5113670;28;20223;-63
2022/12/27 13:50:37;;;;;;;4.78;2.30;;;10.00;75.70;;;;;;5113544;28;20191;-63
2022/12/27 13:53:24;;;;;;;4.72;2.33;;;10.00;74.80;;;;;;5103136;28;20194;-63
2022/12/27 13:56:00;;;;;;;2.50;1.15;;;10.00;75.00;;;;;;5113772;28;20603;-63
2022/12/27 13:59:03;;;;;;;2.95;1.83;;;10.00;74.40;;;;;;5113563;28;20299;-65
2022/12/27 14:01:54;;;;;;;3.95;1.50;;;10.00;73.50;;;;;;5113303;28;20235;-63
2022/12/27 14:04:49;;;;;;;5.57;1.95;;;10.00;74.50;;;;;;5113642;28;20200;-63
2022/12/27 14:07:43;;;;;;;4.57;1.50;;;10.00;74.90;;;;;;5105228;28;20275;-63
2022/12/27 14:10:20;;;;;;;4.43;1.95;;;9.90;75.00;;;;;;5113399;28;20192;-63
2022/12/27 14:13:00;;;;;;;2.22;1.00;;;9.80;75.30;;;;;;5113548;28;20219;-63
2022/12/27 14:15:38;;;;;;;5.55;2.78;;;9.80;75.70;;;;;;5113361;28;20589;-64
2022/12/27 14:18:27;;;;;;;4.60;3.00;;;9.80;76.40;;;;;;5113149;28;20689;-63
2022/12/27 14:21:20;;;;;;;6.22;4.32;;;9.80;76.50;;;;;;5112806;28;20181;-65
2022/12/27 14:24:01;;;;;;;5.68;3.45;;;9.80;77.20;;;;;;5113173;28;20212;-63
2022/12/27 14:27:20;;;;;;;3.30;2.15;;;9.80;77.60;;;;;;5113526;28;20238;-63
2022/12/27 14:30:18;;;;;;;3.95;1.67;;;9.90;77.90;;;;;;5113087;28;20188;-64
2022/12/27 14:33:38;;;;;;;5.07;2.03;;;9.80;77.70;;;;;;5113020;28;20233;-63
2022/12/27 14:36:41;;;;;;;4.60;2.45;;;9.80;77.40;;;;;;5113048;28;20224;-62
2022/12/27 14:39:52;;;;;;;5.68;2.78;;;9.70;77.90;;;;;;5113194;28;20225;-64
2022/12/27 14:43:07;;;;;;;3.30;2.00;;;9.60;78.20;;;;;;5029958;28;20197;-65
2022/12/27 14:46:10;;;;;;;17.75;8.73;;;9.60;78.70;;;;;;5070005;28;20232;-63
2022/12/27 14:49:18;;;;;;;20.50;10.38;;;9.60;78.70;;;;;;5113231;28;20203;-63
2022/12/27 14:52:25;;;;;;;13.77;8.43;;;9.50;78.60;;;;;;5112900;28;20712;-66
2022/12/27 14:55:21;;;;;;;21.38;14.35;;;9.50;78.80;;;;;;5113041;28;20620;-64
2022/12/27 14:57:58;;;;;;;8.13;5.82;;;9.30;80.30;;;;;;5112942;28;20245;-64
2022/12/27 15:00:29;;;;;;;7.18;4.32;;;9.20;81.30;;;;;;5112682;28;20683;-64
2022/12/27 15:03:16;;;;;;;8.40;5.55;;;9.10;82.20;;;;;;5112829;28;20220;-63
2022/12/27 15:05:59;;;;;;;7.32;3.58;;;9.00;84.60;;;;;;5113134;28;20278;-64
2022/12/27 15:08:55;;;;;;;4.95;2.50;;;8.90;85.40;;;;;;5106766;28;20269;-62
2022/12/27 15:11:47;;;;;;;4.43;2.80;;;8.80;85.90;;;;;;5120581;27;20192;-64